LiveATC.Net - Listen to live air traffic control over the Internet!

Airport/ARTCC Code
Frequency Search
(e.g., 124.400, 128.75)
Site-wide search
 


Browse Feeds
Top 50 Feeds
HF Oceanic Feeds
Coverage Map
Bad Weather Areas

LiveATC FAQ
Offer LiveATC feed
Contact LiveATC.net
Press Inquiries

LiveATC on iPhone
LiveATC on Android

LiveATC Mobile
(Mobile browser)

ATC Audio Archives
Interesting Recordings

LiveATC Forums

Home Page
About LiveATC.net


Terms of Use
Privacy Policy

AIRMETs/SIGMETs

FAA Airport Status
NAS Status
Arrival Demand


Server Software By:
Icecast.org
Liquidsoap


Current Potentially Bad Weather Airports
(updated every 30 minutes - sorted alphabetically by ICAO code)



This page lists LiveATC.net airport areas that may be interesting to listen to because of challenging flying (weather) conditions. Challenging weather conditions include low ceilings, limited visibility, high or gusty winds, or thunderstorms.

Updated: Wed Dec 7 20:40:01 UTC 2022
Click on airport name to go to that airport area's feeds.

CYAM ATIS Sault Ste. Marie Airport (Sault Ste. Marie, CA-ON)
WX MAP UNAVAILABLENearest METAR:
CYAM 072015Z 31012KT 3/4SM R12/P6000FT/U -SN BKN006 OVC028 M01/M01 A3023 RMK SN4ST2SC2 SLP248
CYHU Tower Saint-Hubert Airport (Montreal, CA-QC)
WX MAP UNAVAILABLENearest METAR:
CYHU 072026Z AUTO 25006KT 6SM -RA BR OVC005 08/07 A3003 RMK SLP173
CYHZ Del/Gnd/Twr/App #1 Halifax International Airport (Halifax, CA-NS)
WX MAP UNAVAILABLENearest METAR:
CYHZ 072000Z 13011G16KT 5/8SM R23/P6000FT/U R14/P6000FT/U BR OVC004 07/07 A3043 RMK ST8 SLP310
CYMX Gnd/Twr/Radio Montreal-Mirabel International Airport (Montreal, CA-QC)
WX MAP UNAVAILABLENearest METAR:
CYMX 072000Z 25003KT 220V310 1/2SM R06/P6000FT/N -RA FG OVC002 07/07 A3005 RMK ST8 CIG VRB 001-003 SLP183
CYQB App/Dep (Terminal/124.0) Quebec Jean Lesage International Airport (Quebec, CA-QC)
WX MAP UNAVAILABLENearest METAR:
CYQB 072000Z 07007KT 3/4SM R06/P6000FT/D -RA BR VV003 04/04 A3008 RMK FG8 VIS VRB 1/2-1 CIG VRB 2-5 SLP190
CYRQ CTAF Trois Rivieres Airport (Trois-Rivieres, CA-QC)
WX MAP UNAVAILABLENearest METAR:
CYRQ 072000Z AUTO 06004KT 3/4SM -RA BR OVC004 06/06 A3004 RMK SLP177
CYTS ATIS Timmins/Victor M. Power Airport (Timmins, CA-ON)
WX MAP UNAVAILABLENearest METAR:
CYTS 072025Z 35008KT 1 1/2SM -SN DRSN OVC009 M08/M10 A3026 RMK SN4SC4 SLP272
CYYT ATIS St. John's International Airport (St. John's, CA-NL)
WX MAP UNAVAILABLENearest METAR:
CYYT 072018Z 06009KT 1/2SM R16/4500V5500FT/D -DZ FG VV003 02/02 A3067 RMK FG8 SLP394
ENAL Twr/App Alesund Airport, Vigra (Alesund, Norway)
WX MAP UNAVAILABLENearest METAR:
ENAL 072020Z 21017KT 2000 R24/P2000D SN VV008 01/00 Q1002
ENVA Gnd/Twr/App Vaernes Airport (Trondheim, Norway)
WX MAP UNAVAILABLENearest METAR:
ENVA 072020Z 24011KT 4000 -SHSN VV011 00/M00 Q0998 TEMPO 1000 SHSN VV007 RMK WIND 670FT 25013KT
EPKT Del/Twr/App Katowice International Airport (Katowice, Poland)
WX MAP UNAVAILABLENearest METAR:
EPKT 072000Z 24006KT 9999 -SN FEW018 OVC024 01/00 Q1010
ESMS Tower Malmo Airport (Svedala, Sweden)
WX MAP UNAVAILABLENearest METAR:
ESMS 072020Z 31005KT 8000 -SN SCT007 OVC029 M02/M02 Q1005
EVRA Tower/Guard Riga International Airport (Riga, Latvia)
WX MAP UNAVAILABLENearest METAR:
EVRA 072020Z 15008KT 9000 -SN BKN007 OVC013 M02/M03 Q0997 RESN NOSIG
EYVI Twr/App/Misc Vilnius International Airport (Vilnius, Lithuania)
WX MAP UNAVAILABLENearest METAR:
EYVI 072020Z 21014KT 9999 -SN OVC005 M00/M01 Q1001 NOSIG
KABE Del/Gnd/Twr/App Lehigh Valley International Airport (Allentown, US-PA)
kabeNearest METAR:
KABE 072002Z 26003KT 1 3/4SM BR OVC004 11/11 A3010 RMK AO2 T01110106
KACK Tower Nantucket Memorial Airport (Nantucket, US-MA)
kackNearest METAR:
KACK 072026Z 15016KT 2 1/2SM -RA SCT035 BKN047 OVC055 A3016 RMK AO2 P0008 $
KACY App/Dep Atlantic City International Airport (Atlantic City, US-NJ)
kacyNearest METAR:
KACY 071954Z 24004KT 3SM OVC006 15/14 A3012 RMK AO2 SFC VIS 8 SLP199 T01500144 $
KAFW Tower/Heli/App Fort Worth Alliance Airport (Fort Worth, US-TX)
kafwNearest METAR:
KAFW 071953Z 01005KT 1 1/2SM BR OVC002 16/15 A3014 RMK AO2 SFC VIS 2 1/2 DZE42 SLP203 P0000 T01560150
ZBW Boston Center (ALB22) General Edward Lawrence Logan International Airport (Boston, US-MA)
kbosNearest METAR:
KBOS 072015Z 18010KT 2 1/2SM RA BR BKN009 OVC021 13/13 A3011 RMK AO2 TWR VIS 3 VIS NE-SE 1 1/2 P0001 T01330128
KAOH CTAF Lima Allen County Airport (Lima, US-OH)
kaohNearest METAR:
KAOH 072012Z AUTO 31003KT 1 1/2SM BR OVC003 07/06 A3022 RMK AO2 T00720061
KAPC Del/Gnd Napa County Airport (Napa, US-CA)
kapcNearest METAR:
KAPC 072025Z 25004KT 2SM BR OVC003 08/07 A3023 RMK AO2 VIS 1 1/4V3 T00830067
KASH Ground/FBO Boire Field Airport (Nashua, US-NH)
kashNearest METAR:
KASH 071956Z 13006KT 2SM -RA BR OVC004 13/ A3009 RMK AO2 RAB1858 PRESFR SLPNO P0001 T0128
KMHT Boston App/Dep #3 Manchester Airport (Manchester, US-NH)
kmhtNearest METAR:
KMHT 071953Z 16006KT 1 1/2SM -RA BR OVC003 14/13 A3008 RMK AO2 SFC VIS 1 3/4 RAB06 SLP200 P0002 T01390128
KAUG CTAF/FSS Augusta State Airport (Augusta, US-ME)
kaugNearest METAR:
KAUG 072020Z AUTO 16005KT 1SM BR VV005 10/10 A3014 RMK AO2 RAB06E20 P0000 T01000100
KBAF ATIS Barnes Municipal Airport (Westfield/Springfield, US-MA)
kbafNearest METAR:
KBAF 072025Z 16006KT 1 1/2SM BR OVC002 13/13 A3007 RMK AO2 T01330133
KBDL Approach/ANG Bradley International Airport (Windsor Locks, US-CT)
kbdlNearest METAR:
KBDL 072027Z 19005KT 7SM OVC004 14/13 A3008 RMK AO2 T01440133
KBDR Del/Gnd/Twr/App Igor I Sikorsky Memorial Airport (Bridgeport, US-CT)
kbdrNearest METAR:
KBDR 071952Z 00000KT 1/4SM FG VV003 13/13 A3009 RMK AO2 SLP189 T01330133
Boston App/Dep (North Sat) #1 Laurence G Hanscom Field Airport (Bedford, US-MA)
kbedNearest METAR:
KBED 071951Z 18005KT 10SM OVC008 15/13 A3010 RMK AO2 SLP205 T01500133
KBGM Del/Gnd/Twr/App Greater Binghamton Airport/Edwin A Link Field (Binghamton, US-NY)
kbgmNearest METAR:
KBGM 072024Z AUTO 24006KT 1/2SM FG OVC002 09/09 A3005 RMK AO2 RAB1954E06 P0001 T00940094 RVRNO
KBGR Del/Gnd/Twr Bangor International Airport (Bangor, US-ME)
kbgrNearest METAR:
KBGR 072022Z 16010KT 2SM -RA BR OVC007 12/11 A3014 RMK AO2 SFC VIS 2 1/2 CIG 005V012 P0001 T01170111
KBID CTAF Block Island State Airport (Block Island, US-RI)
kbidNearest METAR:
KBID 071956Z AUTO 19017G21KT 2 1/2SM -RA BR OVC003 13/13 A3012 RMK AO2 VIS 1 1/2V4 RAB1857 SLP201 P0001 T01330128
KNEL/KWRI/ZNY Lakehurst Maxfield Field Joint Base McGuire (Lakehurst, US-NJ)
kwriNearest METAR:
KWRI 072019Z 25008KT 2SM BR OVC002 14/13 A3011 RMK A02A TWR VIS 1 1/4 VIS 2 1/4 RWY06 VIS 2 3/4 RWY18 VIS 2 3/4 RWY36 SLP196
KNEL/KWRI/ZNY Lakehurst Maxfield Field Joint Base McGuire (Lakehurst, US-NJ)
knelNearest METAR:
KNEL 072000Z AUTO 25010KT OVC006 14/14 A3009 RMK AO2 CIG 005V009 SLP188 T01440139 $
KBLM/N12/3N6/KMJX Lakewood Airport (Lakewood, US-NJ)
kblmNearest METAR:
KBLM 071956Z AUTO 23008KT 6SM HZ OVC003 A3011 RMK AO2 SLPNO FZRANO $
KBMG Twr/App Monroe County Airport (Bloomington, US-IN)
kbmgNearest METAR:
KBMG 071953Z 35005KT 4SM BR OVC005 08/06 A3024 RMK AO2 SLP242 T00780061
MA/NH/RI/CT Area CTAF Fitchburg Municipal Airport (Fitchburg, US-MA)
kconNearest METAR:
KCON 072013Z AUTO 00000KT 1 1/4SM -RA BR OVC004 11/11 A3008 RMK AO2 RAB1959 P0000 T01060106
MA/NH/RI/CT Area CTAF Fitchburg Municipal Airport (Fitchburg, US-MA)
ksfzNearest METAR:
KSFZ 072029Z AUTO VRB03KT 4SM -RA BR OVC003 13/13 A3010 RMK AO2 P0003
MA/NH/RI/CT Area CTAF Fitchburg Municipal Airport (Fitchburg, US-MA)
koreNearest METAR:
KORE 072020Z AUTO 17005KT 1 3/4SM BR OVC004 13/13 A3008 RMK AO2 T01330128
MA/NH/RI/CT Area CTAF Fitchburg Municipal Airport (Fitchburg, US-MA)
kpymNearest METAR:
KPYM 071952Z AUTO 18006G15KT 6SM -RA BR OVC005 14/13 A3014 RMK AO2 SLP206 P0007 T01440133
KBTV Del/Gnd/Twr/App Burlington International Airport (Burlington, US-VT)
WX MAP UNAVAILABLENearest METAR:
KBTV 072026Z 32005KT 3SM R15/2600VP6000FT -RA BR BCFG OVC007 11/10 A3002 RMK AO2 VIS N 1 P0004 T01110100
KBUF Gnd/Twr/App Buffalo Niagara International Airport (Buffalo, US-NY)
kbufNearest METAR:
KBUF 071954Z 33003KT 10SM OVC006 07/06 A3014 RMK AO2 SLP211 T00720056
KBVI Ground/Tower Beaver County Airport (Beaver Falls, US-PA)
kbviNearest METAR:
KBVI 072015Z AUTO 31005KT 1 3/4SM BR OVC003 11/10 A3016 RMK AO2 T01060096
KBVY Tower #1 Beverly Municipal Airport (Beverly, US-MA)
kbvyNearest METAR:
KBVY 072019Z 12005KT 2 1/2SM -RA BR OVC004 12/12 A3010 RMK AO2 RAB05 P0000 T01170117
KBWI ATIS Baltimore/Washington International Thurgood Marshall Airport (Baltimore, US-MD)
kbwiNearest METAR:
KBWI 071954Z 23003KT 7SM OVC006 13/12 A3012 RMK AO2 SLP200 T01330117
KCAK Del/Gnd/Twr Akron-Canton Regional Airport (Akron, US-OH)
kcakNearest METAR:
KCAK 072027Z 32004KT 1SM R23/6000VP6000FT BR OVC003 09/07 A3019 RMK AO2 SFC VIS 1 1/2 T00890072
KCDC ASOS Cedar City Regional Airport (Cedar City, US-UT)
kcdcNearest METAR:
KCDC 072024Z AUTO 00000KT 1 1/2SM -SN BR BKN025 BKN038 OVC045 M02/M03 A3010 RMK AO2 SNB03 P0000 T10171028
KCDW Del/Gnd/Twr Essex County Airport (Caldwell, US-NJ)
kcdwNearest METAR:
KCDW 071953Z 00000KT 2SM BR OVC005 14/13 A3010 RMK AO2 SLP196 T01390128
KCLE Approach Cleveland-Hopkins International Airport (Cleveland, US-OH)
kcleNearest METAR:
KCLE 072014Z 36004KT 1/4SM -DZ BR OVC004 07/06 A3018 RMK AO2 SFC VIS 4 P0000 T00720061 $
KCLT Approach (Arrival) Charlotte/Douglas International Airport (Charlotte, US-NC)
kcltNearest METAR:
KCLT 071952Z 22005KT 10SM OVC007 17/16 A3021 RMK SLP227 T01720156
KCMH App/Dep Port Columbus International Airport (Columbus, US-OH)
kcmhNearest METAR:
KCMH 071951Z 32004KT 6SM BR OVC006 10/09 A3018 RMK AO2 SLP222 T01000094
KCMH App/Dep (125.95) Port Columbus International Airport (Columbus, US-OH)
kosuNearest METAR:
KOSU 071953Z 34003KT 5SM BR OVC006 11/08 A3018 RMK AO2 SLP223 T01060083
KCMH App/Dep (134.0) Port Columbus International Airport (Columbus, US-OH)
klckNearest METAR:
KLCK 071955Z AUTO 33004KT 10SM OVC007 11/09 A3018 RMK AO2 T01080094
KCVG Approach (Class B) Cincinnati/Northern Kentucky International Airport (Covington, US-KY)
kcvgNearest METAR:
KCVG 071952Z 31006KT 6SM BR OVC007 11/09 A3021 RMK AO2 SLP227 CIG 005V009 T01060094 $
KCVO CTAF/Misc Corvallis Municipal Airport (Corvallis, US-OR)
kcvoNearest METAR:
KCVO 071956Z AUTO 19004KT 10SM OVC006 03/02 A3018 RMK AO2 SLP221 T00330022 PNO $
KDAA/KADW Tower Joint Base Andrews (Camp Springs, US-MD)
kadwNearest METAR:
KADW 071955Z AUTO 24003KT 10SM OVC005 13/13 A3011 RMK AO2 SLP203 T01280126 $
KDAA/KADW Tower Joint Base Andrews (Camp Springs, US-MD)
kdaaNearest METAR:
KDAA 071955Z AUTO 23003KT 10SM OVC006 13/12 A3013 RMK AO2 SLP206 T01280122 $
KDCA Tower/Approach Ronald Reagan Washington National Airport (Washington, US-DC)
kdcaNearest METAR:
KDCA 071952Z 16003KT 9SM OVC006 13/12 A3014 RMK AO2 SLP206 T01280117
KDFW Reg App Feeder (East) Dallas/Fort Worth International Airport (Dallas, US-TX)
kdfwNearest METAR:
KDFW 071953Z 34010KT 2 1/2SM BR SCT019 BKN026 OVC033 18/17 A3012 RMK AO2 WSHFT 1906 SFC VIS 3 SLP195 FROPA VIS SW-NW 2 T01830167
KDOV App/Dep Dover Air Force Base (Dover, US-DE)
kdovNearest METAR:
KDOV 071955Z AUTO 21008KT 10SM OVC006 14/14 A3011 RMK AO2 SLP200 T01440144
KDTO Gnd/Twr Denton Municipal Airport (Denton, US-TX)
kdtoNearest METAR:
KDTO 072028Z 01005KT 2 1/2SM BR BKN005 OVC011 15/14 A3015 RMK AO2 CIG 003V008 T01500144
KDVO CTAF Gnoss Field Airport (Novato, US-CA)
kdvoNearest METAR:
KDVO 072015Z AUTO 00000KT 5SM BR OVC003 08/08 A3023 RMK AO2
KDXR Ground/Tower Danbury Municipal Airport (Danbury, US-CT)
kdxrNearest METAR:
KDXR 071953Z 13003KT 7SM OVC005 15/13 A3009 RMK AO2 CIG 004V009 SLP188 T01500133
KDYL CTAF #1 Doylestown Airport (Doylestown, US-PA)
kdylNearest METAR:
KDYL 071954Z AUTO 25004KT 10SM OVC005 13/11 A3010 RMK AO2 SLP195 T01280106
KLGA NY App (EMPYR) Newark Liberty International Airport (Newark, US-NJ)
klgaNearest METAR:
KLGA 072011Z 25010KT 10SM OVC006 15/13 A3009 RMK AO2 T01500128 $
KFCH/KMAE/E79 CTAF Sierra Sky Park Airport (Fresno, US-CA)
kmaeNearest METAR:
KMAE 072022Z AUTO 00000KT 5SM BR OVC007 09/07 A3024 RMK AO2 T00890072
KFDK Del/Gnd/Twr/CTAF #1 Frederick Municipal Airport (Frederick, US-MD)
kfdkNearest METAR:
KFDK 071947Z 24005KT 5SM BR OVC007 12/12 A3013
KFRG ATIS Republic Airport (Farmingdale, US-NY)
kfrgNearest METAR:
KFRG 071953Z AUTO 22006KT 1 1/2SM BR OVC002 14/13 A3009 RMK AO2 SLP190 T01390128
KFWA App/Dep Fort Wayne International Airport (Fort Wayne, US-IN)
kfwaNearest METAR:
KFWA 072015Z 27005KT 2 1/2SM -DZ BR OVC008 08/06 A3025 RMK AO2 P0000 T00780056
KFYV Gnd/Twr/App/ZME Drake Field Airport (Fayetteville, US-AR)
kfyvNearest METAR:
KFYV 072021Z 31004KT 2SM BR OVC008 13/12 A3019 RMK AO2 T01330117
KGAI CTAF/UNICOM Montgomery County Airpark (Gaithersburg, US-MD)
kgaiNearest METAR:
KGAI 071956Z AUTO 00000KT 10SM OVC005 12/12 A3013 RMK AO2 SLP219 T01220117
KGBG CTAF Galesburg Municipal Airport (Galesburg, US-IL)
kgbgNearest METAR:
KGBG 072015Z AUTO 00000KT 3SM BR OVC004 04/04 A3028 RMK AO2 T00420042
KGED ASOS Delaware Coastal Airport (Georgetown, US-DE)
kgedNearest METAR:
KGED 071954Z AUTO 23006KT 10SM OVC008 17/15 A3013 RMK AO2 SLP200 T01670150 $
KGEG Del/Gnd/Twr/App Spokane International Airport (Spokane, US-WA)
kgegNearest METAR:
KGEG 071953Z 05004KT 1/4SM R21/P6000FT BR FEW001 OVC003 M02/M04 A3012 RMK AO2 SFC VIS 3/4 SLP228 T10221039
KGFL CTAF/App Floyd Bennett Memorial Airport (Glens Falls, US-NY)
kgflNearest METAR:
KGFL 072011Z AUTO 00000KT 8SM -RA OVC009 12/12 A3002 RMK AO2 CIG 007V011 P0000 T01220117
KGMU Ground/Tower Greenville Downtown Airport (Greenville, US-SC)
kgmuNearest METAR:
KGMU 071953Z 24008KT 7SM -RA OVC003 17/15 A3023 RMK AO2 RAB41 SLP236 P0000 T01670150
KGSP App/Dep (East) Greenville Spartanburg International Airport (Greer, US-SC)
kgspNearest METAR:
KGSP 071953Z 23009KT 8SM OVC005 16/14 A3023 RMK AO2 SLP233 T01610144 $
KGYH Tower Donaldson Field Airport (Greenville, US-SC)
kgyhNearest METAR:
KGYH 071947Z 24010KT 2 1/2SM -RABR OVC003 16/16 A3024
KGSO Approach/Departure Piedmont Triad International Airport (Greensboro, US-NC)
kgsoNearest METAR:
KGSO 071954Z 25007KT 6SM BR OVC004 14/13 A3020 RMK AO2 SLP223 T01390133
KGWB AWOS De Kalb County Airport (Auburn, US-IN)
kgwbNearest METAR:
KGWB 072015Z AUTO 28005KT 1 1/2SM BR OVC007 06/06 A3025 RMK AO2
KGYI Ground/Tower North Texas Regional Airport/Perrin Field (Sherman/Denison, US-TX)
kgyiNearest METAR:
KGYI 071950Z 36003KT 2SM BR OVC003 13/12 A3018
KHEF Del/Gnd/Twr Manassas Regional Airport/Harry P. Davis Field (Manassas, US-VA)
khefNearest METAR:
KHEF 071956Z 00000KT 10SM OVC006 12/12 A3013 RMK AO2 SLP209 T01220117
KHFD Ground/Tower Hartford-Brainard Airport (Hartford, US-CT)
khfdNearest METAR:
KHFD 071953Z 16005KT 10SM OVC007 14/13 A3009 RMK AO2 RAB1856E17 SLP189 P0000 T01440133
KHIO Tower (Both) Portland-Hillsboro Airport (Portland, US-OR)
khioNearest METAR:
KHIO 071953Z 16004KT 4SM BR OVC008 04/02 A3015 RMK AO2 SLP212 T00390017
KHKY ASOS Hickory Regional Airport (Hickory, US-NC)
khkyNearest METAR:
KHKY 071953Z 00000KT 1/8SM FG VV002 12/12 A3020 RMK AO2 SLP215 T01220122
NY Approach (NOBBI/NYACK/HAARP) Westchester County Airport (New York, US-NY)
khpnNearest METAR:
KHPN 071956Z 00000KT 1SM R16/P6000FT BR VV002 14/13 A3008 RMK AO2 SLP185 T01390133
NY Dep (Liberty North) #1 John F Kennedy International Airport (New York, US-NY)
klgaNearest METAR:
KJFK 072011Z 21003KT 1/4SM R04R/4500V6000FT BR BKN005 OVC015 13/13 A3010 RMK AO2 SFC VIS 1 DZE11 P0000 T01280128
KHRO CTAF/ZME/Misc Boone County Airport (Harrison, US-AR)
khroNearest METAR:
KHRO 071953Z AUTO 12005KT 7SM OVC005 12/10 A3020 RMK AO2 SLP226 T01170100
KJPX CTAF/Tower East Hampton Town Airport (East Hampton, US-NY)
kjpxNearest METAR:
KJPX 072015Z AUTO 21007KT 1 3/4SM DZ OVC004 14/14 A3011 RMK AO2 P0001 T01350135
KHUL/KPQI/ZBW01/15 Houlton International Airport (Houlton, US-ME)
kpqiNearest METAR:
KPQI 071956Z AUTO 17007KT 10SM -RA OVC007 05/05 A3018 RMK AO2 RAE1857B16 SLP248 P0000 T00500050
KHUL/KPQI/ZBW01/15 Houlton International Airport (Houlton, US-ME)
khulNearest METAR:
KHUL 072002Z AUTO 00000KT 1 1/2SM -RA BR OVC016 08/07 A3017 RMK AO2 P0001 T00780067
KHVN Ground/Tower Tweed-New Haven Airport (New Haven, US-CT)
khvnNearest METAR:
KHVN 072005Z 00000KT 1/4SM R02/1800V2200FT FG VV002 14/14 A3009 RMK AO2 T01390139
KHWV CTAF Brookhaven Airport (Shirley, US-NY)
khwvNearest METAR:
KHWV 071956Z AUTO 18007KT 1/4SM FG VV002 14/12 A3011 RMK AO2 RAB00E11B26E46 SLP195 P0000 T01390122
KIAD Del/Gnd Washington Dulles International Airport (Washington, US-DC)
kiadNearest METAR:
KIAD 071952Z 19004KT 7SM OVC007 13/11 A3012 RMK AO2 SLP199 T01280111
ZDC Sectors 12/04 Leesburg Executive Airport (Leesburg, US-VA)
kjyoNearest METAR:
KJYO 072015Z AUTO 00000KT 7SM OVC006 12/12 A3014 RMK AO2
KIAG Del/Gnd/Twr Niagara Falls International Airport (Niagara Falls, US-NY)
kiagNearest METAR:
KIAG 072019Z 00000KT 2 1/2SM BR OVC005 07/06 A3015 RMK AO2 T00670056
KIMS AWOS Madison Municipal Airport (Madison, US-IN)
kimsNearest METAR:
KIMS 072015Z AUTO 32004KT 10SM OVC007 10/10 A3025 RMK AO2
KISP (NY Approach) Long Island Mac Arthur Airport (Islip, US-NY)
kispNearest METAR:
KISP 071956Z 20006KT 1/8SM R06/2600V3000FT FG VV002 14/14 A3010 RMK AO2 SFC VIS 1/4 RAB1857E14 SLP191 P0001 T01390139
KIUA CTAF Canandaigua Airport (Canandaigua, US-NY)
WX MAP UNAVAILABLENearest METAR:
KIUA 072015Z AUTO 33006KT 2 1/2SM BR OVC003 06/06 A3012 RMK AO2 T00600057
KJQF Ground/Tower Concord Regional Airport (Concord, US-NC)
kjqfNearest METAR:
KJQF 071950Z 23004KT 8SM OVC008 18/16 A3023
KLCI Del/CTAF Laconia Municipal Airport (Laconia, US-NH)
klciNearest METAR:
KLCI 072020Z AUTO 02004KT 1SM -RA OVC002 A3010 RMK AO2 RAB15 P0000 FZRANO $
KLGD CTAF La Grande/Union County Airport (La Grande, US-OR)
klgdNearest METAR:
KLGD 071956Z AUTO 17023G30KT 10SM CLR 01/M05 A3014 RMK AO2 PK WND 18030/1950 SLP232 T00111050 FZRANO
KLHZ CTAF Triangle North Executive Airport (Louisburg, US-NC)
klhzNearest METAR:
KLHZ 072015Z AUTO 21005KT 7SM OVC005 16/16 A3022 RMK AO2
KLNS ATIS Lancaster Airport (Lancaster, US-PA)
klnsNearest METAR:
KLNS 071953Z 21003KT 9SM OVC005 13/11 A3011 RMK AO2 SLP198 T01280111
KLOU Tower Bowman Field Airport (Louisville, US-KY)
klouNearest METAR:
KLOU 072017Z 36004KT 7SM OVC008 12/11 A3022 RMK AO2 CIG 006V011 T01170106
KLWM Ground/Tower Lawrence Municipal Airport (Lawrence, US-MA)
klwmNearest METAR:
KLWM 071954Z VRB05KT 10SM -RA OVC008 14/13 A3012 RMK AO2 RAB45 SLP200 P0000 T01440128
KLWS Ground/Tower Lewiston-Nez Perce County Airport (Lewiston, US-ID)
klwsNearest METAR:
KLWS 071956Z 30004KT 3/4SM -SN BR OVC002 M02/M04 A3018 RMK AO2 SNB53 SLP237 P0000 T10221039
KMDT App/Dep (East/West) Harrisburg International Airport (Harrisburg, US-PA)
kmdtNearest METAR:
KMDT 072003Z 00000KT 1SM R13/P6000FT BR OVC006 11/09 A3011 RMK AO2 T01060094
KCXY Ground Capital City Airport (Harrisburg, US-PA)
kcxyNearest METAR:
KCXY 071956Z 00000KT 3SM BR OVC006 12/09 A3011 RMK AO2 SLP199 T01170094
KMEM Approach Memphis International Airport (Memphis, US-TN)
kmemNearest METAR:
KMEM 072013Z 32004KT 1SM R36L/5000VP6000FT +RA BR OVC003 17/16 A3022 RMK AO2 P0016 T01670161
KMFD ATIS Mansfield Lahm Regional Airport (Mansfield, US-OH)
kmfdNearest METAR:
KMFD 072018Z 32004KT 1 1/2SM BR OVC002 07/07 A3020 RMK AO2 T00720067
KMFR App/Dep Rogue Valley International - Medford Airport (Medford, US-OR)
kmfrNearest METAR:
KMFR 072003Z 35003KT 10SM OVC005 M01/M01 A3019 RMK AO2 T10061011
KCON/KDAW/KFIT CTAF Fitchburg Municipal Airport (Fitchburg, US-MA)
kdawNearest METAR:
KDAW 072024Z AUTO 14003KT 1/4SM RA FG VV002 11/11 A3008 RMK AO2 P0004 T01110106
MA/NH CTAF 122.8 Minute Man Air Field (Stow, US-MA)
kafnNearest METAR:
KAFN 072025Z AUTO 18004KT 5SM BR OVC004 13/12 A3007 RMK AO2 T01330122
KSFM CTAF Sanford Seacoast Regional Airport (Sanford, US-ME)
ksfmNearest METAR:
KSFM 072007Z AUTO 00000KT 4SM -RA BR OVC003 11/11 A3011 RMK AO2 P0000
KMMU ATIS Morristown Municipal Airport (Morristown, US-NJ)
kmmuNearest METAR:
KMMU 072007Z 27004KT 2SM BR OVC006 15/15 A3010
KMMV CTAF Mc Minnville Municipal Airport (Mc Minnville, US-OR)
kmmvNearest METAR:
KMMV 072000Z AUTO 00000KT 1 3/4SM BR OVC003 02/02 A3016 RMK AO2 T00220022
Potomac App/Dep (BUFFR) Baltimore/Washington International Thurgood Marshall Airport (Baltimore, US-MD)
kmrbNearest METAR:
KMRB 071953Z 00000KT 2SM BR OVC004 11/09 A3010 RMK AO2 SFC VIS 6 SLP195 T01060094 $
KMSN Twr/App Dane County Regional Airport-Truax Field (Madison, US-WI)
kmsnNearest METAR:
KMSN 072021Z 31004KT 1SM R36/P6000FT BR SCT004 OVC009 01/M01 A3027 RMK AO2 SFC VIS 1 1/2 CIG 008V012 T00061011
KMTN Gnd/Twr Martin State Airport (Baltimore, US-MD)
kmtnNearest METAR:
KMTN 071955Z 00000KT 5SM BR OVC006 12/12 A3014
KOFP CTAF Hanover County Municipal Airport (Richmond/Ashland, US-VA)
kofpNearest METAR:
KOFP 071954Z AUTO 21006KT 7SM OVC007 17/16 A3015 RMK AO2 SLP209 T01670156
KOQN AWOS Brandywine Airport (West Chester, US-PA)
koqnNearest METAR:
KOQN 072015Z AUTO 23003KT 5SM BR OVC005 12/11 A3012 RMK AO2
KMQS/KPTW CTAF Chester County G O Carlson Airport (Coatesville, US-PA)
kmqsNearest METAR:
KMQS 072015Z AUTO 00000KT 2SM BR OVC002 12/11 A3012 RMK AO2
KOXC Ground/Tower Waterbury-Oxford Airport (Oxford, US-CT)
koxcNearest METAR:
KOXC 071951Z 17003KT 1/4SM FG OVC001 13/13 A3009 RMK AO2 SLP203 T01330133
KPDT Gnd/Twr/App Eastern Oregon Regional Airport at Pendleton (Pendleton, US-OR)
kpdtNearest METAR:
KPDT 072003Z 31009KT 1/4SM R26/0800V1400FT FZFG VV002 M04/M05 A3015 RMK AO2 T10391050
KPEO CTAF Penn Yan Airport (Penn Yan, US-NY)
kpeoNearest METAR:
KPEO 072000Z AUTO VRB03KT 8SM OVC003 08/08 A3010 RMK AO2 T00830083
KPGV CTAF Pitt-Greenville Airport (Greenville, US-NC)
kpgvNearest METAR:
KPGV 072015Z AUTO 23004KT 2 1/2SM -RA SCT019 BKN041 OVC055 18/18 A3022 RMK AO2
KPHL App (N/S Arrival) Philadelphia International Airport (Philadelphia, US-PA)
kphlNearest METAR:
KPHL 071954Z 24008KT 2 1/2SM BR OVC004 13/12 A3012 RMK AO2 SLP199 T01280122 $
KPIA Approach/Departure General Downing - Peoria International Airport (Peoria, US-IL)
kpiaNearest METAR:
KPIA 071954Z 27003KT 1 1/2SM BR OVC010 07/04 A3028 RMK AO2 SLP258 T00670044
KPNE Del/Gnd/Twr/App Northeast Philadelphia Airport (Philadelphia, US-PA)
kpneNearest METAR:
KPNE 071954Z 22005KT 5SM BR OVC005 13/12 A3012 RMK AO2 SLP198 T01330117
SNJ Area CTAF 122.8 Cross Keys Airport (Cross Keys, US-NJ)
kvayNearest METAR:
KVAY 072012Z AUTO 23005KT 1SM BR OVC002 13/13 A3011 RMK AO2 T01330128
KPRB CTAF Paso Robles Municipal Airport (Paso Robles, US-CA)
kprbNearest METAR:
KPRB 071953Z AUTO 00000KT 10SM OVC003 07/06 A3023 RMK AO2 SLP238 T00720061 $
KPSC/KRLD/S98/ZSE Vista Field Airport (Kennewick, US-WA)
kpscNearest METAR:
KPSC 071953Z 36006KT 4SM BR OVC006 M01/M03 A3025 RMK AO2 SLP249 T10111028
KPSM Gnd/Twr/App/GCA Portsmouth International Airport at Pease (Portsmouth, US-NH)
kpsmNearest METAR:
KPSM 071955Z 16004KT 3SM -RA BR OVC002 12/11 A3010 RMK AO2A SLP196 P0000 T01160113
KPVB/KSFY CTAF Platteville Municipal Airport (Platteville, US-WI)
kpvbNearest METAR:
KPVB 072015Z AUTO 33008KT 7SM OVC005 01/M01 A3028 RMK AO1 T00051009
KPWM Gnd/Twr/App Portland International Jetport (Portland, US-ME)
kpwmNearest METAR:
KPWM 072019Z 19009KT 3SM -RA BR OVC003 10/10 A3012 RMK AO2 P0001 T01000100
KRDG Gnd/Twr/App Reading Regional Airport/Carl A Spaatz Field (Reading, US-PA)
krdgNearest METAR:
KRDG 072002Z 25003KT 1 1/2SM BR OVC004 12/11 A3010 RMK AO2 SFC VIS 2 1/2 T01220111
KRDU Approach Raleigh-Durham International Airport (Raleigh/Durham, US-NC)
krduNearest METAR:
KRDU 071951Z 22007KT 2SM BR OVC005 17/16 A3020 RMK AO2 SFC VIS 3 RAE09 SLP225 CIG 004V006 P0000 T01720161
KRIC Approach/Departure Richmond International Airport (Richmond, US-VA)
kricNearest METAR:
KRIC 071954Z 20011KT 10SM OVC007 17/15 A3014 RMK AO2 SLP212 T01670150
KRIL CTAF/ZDV Rifle Garfield County Airport (Rifle, US-CO)
krilNearest METAR:
KRIL 072014Z AUTO 00000KT 2 1/2SM -SN BKN027 OVC065 02/M02 A3011 RMK AO2 UPB02E09SNE02B09 P0000 T00221017
KROC Approach Greater Rochester International Airport (Rochester, US-NY)
krocNearest METAR:
KROC 071954Z 32007KT 10SM OVC006 07/06 A3013 RMK AO2 SLP210 T00670056
KSLE Gnd/Twr McNary Field Airport (Salem, US-OR)
ksleNearest METAR:
KSLE 071956Z 20007KT 4SM BR OVC007 03/02 A3016 RMK AO2 CIG 004V009 SLP216 T00280017
KSOP AWOS Moore County Airport (Pinehurst/Southern Pines, US-NC)
ksopNearest METAR:
KSOP 071956Z AUTO 19006KT 10SM OVC007 19/18 A3021 RMK AO2 SLPNO T01890178 TSNO
KSUS App/Dep Spirit of St. Louis Airport (St. Louis, US-MO)
ksusNearest METAR:
KSUS 071954Z 00000KT 2 1/2SM HZ OVC027 11/08 A3026 RMK AO2 SLP248 T01060078
KSYR Tower/Approach Syracuse Hancock International Airport (Syracuse, US-NY)
ksyrNearest METAR:
KSYR 071954Z 30006KT 7SM OVC005 09/09 A3009 RMK AO2 RAB01E23 SLP187 P0001 T00940089
KTEB Del/Gnd/Ramp Teterboro Airport (Teterboro, US-NJ)
ktebNearest METAR:
KTEB 072029Z 18006KT 2SM HZ OVC008 16/13 A3008 RMK AO2 DZE23 P0000 T01610133
KTOC CTAF Toccoa Airport-RG Letourneau Field (Toccoa, US-GA)
ktocNearest METAR:
KTOC 072010Z AUTO 22006KT 2 1/2SM BR OVC003 15/15 A3024 RMK AO2 T01520148
KTOL Del/Gnd/Twr/App Toledo Express Airport (Toledo, US-OH)
ktolNearest METAR:
KTOL 071952Z 23004KT 4SM HZ OVC007 08/06 A3021 RMK AO2 SLP233 T00830056
KTRI Gnd/Twr/App Tri-Cities Regional Airport (Bristol/Johnson/Kingsport, US-TN)
ktriNearest METAR:
KTRI 071953Z 00000KT 1SM -RA BR OVC009 16/15 A3021 RMK AO2 RAB38 SLP215 P0001 T01610150
KTTA CTAF Raleigh Executive Jetport at Sanford-Lee County Airport (Sanford, US-NC)
kttaNearest METAR:
KTTA 072015Z AUTO 19003KT 10SM OVC009 18/18 A3019 RMK AO2 T01820182
KTTN Ground/Tower Trenton Mercer Airport (Trenton, US-NJ)
kttnNearest METAR:
KTTN 071953Z 22005KT 4SM BR OVC005 13/12 A3010 RMK AO2 SLP186 T01280122
KTYS Del/Gnd/Twr/App McGhee Tyson Airport (Knoxville, US-TN)
ktysNearest METAR:
KTYS 071953Z 27007KT 4SM -RA BR OVC005 18/18 A3020 RMK AO2 CIG 003V008 SLP221 P0010 T01830178 $
KUAO Tower Aurora State Airport (Aurora, US-OR)
kuaoNearest METAR:
KUAO 071953Z 19006KT 6SM BR OVC006 03/01 A3018 RMK AO2 SLP219 T00330011
KUES Del/Gnd/Twr Capitol Airport (Brookfield, US-WI)
kuesNearest METAR:
KUES 072020Z 30005KT 2 1/2SM BR BKN006 OVC024 01/01 A3027
KUKT AWOS Quakertown Airport (Quakertown, US-PA)
kuktNearest METAR:
KUKT 072015Z AUTO 00000KT 6SM BR OVC004 12/12 A3011 RMK A01
KUUU CTAF/Del Newport State Airport (Newport, US-RI)
kuuuNearest METAR:
KUUU 072023Z AUTO 19010G15KT 1/2SM -RA FG OVC002 13/13 A3011 RMK AO2 P0004 T01280128
KWDR/KCVC/KCNI CTAF Cherokee County Airport (Canton, US-GA)
kcniNearest METAR:
KCNI 072015Z AUTO 32003KT 1 1/2SM BR OVC017 16/16 A3026 RMK AO2 T01600159
LJMB Tower Maribor Edvard Rusjan Airport (Maribor, Slovenia)
WX MAP UNAVAILABLENearest METAR:
LJMB 072000Z 08002KT 0150 R32/0600N FG VV001 01/00 Q1015
LPPT Approach Lisboa Airport (Lisbon, Portugal)
WX MAP UNAVAILABLENearest METAR:
LPPT 072000Z 13014KT 100V160 9999 -RA FEW002 BKN003 FEW018CB 14/14 Q1002 RETSRA
LSZG Tower Grenchen Airport (Grenchen, Switzerland)
WX MAP UNAVAILABLENearest METAR:
LSZG 072020Z AUTO 00000KT 0050 FZFG VV000 M03/M03 Q1014
LUKK Air to Air Chisinau International Airport (Chisinau, Moldova)
WX MAP UNAVAILABLENearest METAR:
LUKK 072030Z 24004KT 0700 0650NW R26/0650D FG NSC 03/02 Q1015 TEMPO 0300 FG VV002
PADQ Gnd/Twr/ZAN Kodiak Airport (Kodiak, US-AK)
WX MAP UNAVAILABLENearest METAR:
PADQ 071953Z 28022G34KT 9SM BKN065 00/M09 A2963 RMK AO2 PK WND 27034/1924 SNE1857B19E21 SLP035 P0000 T00001089
PAFA Gnd/Twr/App Fairbanks International Airport (Fairbanks, US-AK)
pafaNearest METAR:
PAFA 071953Z 00000KT 9SM -SN BKN055 BKN070 OVC095 M09/M12 A2951 RMK AO2 SLP003 PCPN VRY LGT P0000 T10891117 $
Anchorage Area CTAF 122.9 Merrill Field Airport (Anchorage, US-AK)
pamrNearest METAR:
PAMR 071953Z 17005KT 1/2SM SN BR BKN012 OVC024 M03/M04 A2943 RMK AO2 SLP967 P0000 T10281044
PAED Tower Elmendorf Air Force Base (Anchorage, US-AK)
paedNearest METAR:
PAED 071955Z 19004KT 1/2SM -SN FZFG SCT003 OVC013 M03/M04 A2940 RMK AO2A CIG 003 RWY16 CIG 002 RWY24 SLP954 P0004 T10301036 $
PANC Del/Gnd/Twr/App Ted Stevens Anchorage International Airport (Anchorage, US-AK)
pancNearest METAR:
PANC 072013Z 01003KT 3SM -SN BR OVC032 M02/M06 A2942 RMK AO2 P0000 T10171061
PHOG Del/Gnd/Twr/App Kahului Airport (Maui) (Kahului, US-HI)
phogNearest METAR:
PHOG 071954Z 05024G35KT 10SM FEW030 27/19 A3005 RMK AO2 PK WND 05035/1949 SLP179 T02670189